createdAt,value
2019-03-26T00:00:30.370Z,100119.00
2019-03-26T00:03:02.652Z,100111.00
2019-03-26T00:07:03.636Z,100109.00
2019-03-26T00:09:32.731Z,100116.00
2019-03-26T00:12:03.720Z,100118.00
2019-03-26T00:14:34.636Z,100125.00
2019-03-26T00:17:04.787Z,100125.00
2019-03-26T00:19:35.665Z,100125.00
2019-03-26T00:22:06.177Z,100115.00
2019-03-26T00:24:35.695Z,100126.00
2019-03-26T00:27:07.996Z,100131.00
2019-03-26T00:29:38.784Z,100118.00
2019-03-26T00:32:08.670Z,100125.00
2019-03-26T00:34:38.641Z,100122.00
2019-03-26T00:37:07.950Z,100122.00
2019-03-26T00:39:38.969Z,100121.00
2019-03-26T00:42:11.596Z,100134.00
2019-03-26T00:44:41.764Z,100121.00
2019-03-26T00:47:12.700Z,100134.00
2019-03-26T00:49:42.964Z,100128.00
2019-03-26T00:52:13.683Z,100135.00
2019-03-26T00:54:43.747Z,100132.00
2019-03-26T00:57:13.714Z,100136.00
2019-03-26T01:00:11.630Z,100139.00
2019-03-26T01:02:40.748Z,100139.00
2019-03-26T01:05:11.582Z,100138.00
2019-03-26T01:07:42.606Z,100146.00
2019-03-26T01:10:21.891Z,100147.00
2019-03-26T01:12:52.636Z,100146.00
2019-03-26T01:15:21.886Z,100148.00
2019-03-26T01:17:52.685Z,100151.00
2019-03-26T01:20:21.797Z,100151.00
2019-03-26T01:22:52.698Z,100160.00
2019-03-26T01:25:21.770Z,100154.00
2019-03-26T01:27:51.810Z,100148.00
2019-03-26T01:30:21.806Z,100152.00
2019-03-26T01:32:51.926Z,100161.00
2019-03-26T01:35:22.759Z,100166.00
2019-03-26T01:37:52.767Z,100163.00
2019-03-26T01:40:22.715Z,100171.00
2019-03-26T01:42:53.838Z,100176.00
2019-03-26T01:45:24.699Z,100183.00
2019-03-26T01:47:53.931Z,100180.00
2019-03-26T01:50:25.299Z,100191.00
2019-03-26T01:52:56.750Z,100189.00
2019-03-26T01:55:26.445Z,100188.00
2019-03-26T01:57:57.962Z,100190.00
2019-03-26T02:02:37.705Z,100193.00
2019-03-26T02:05:07.663Z,100192.00
2019-03-26T02:07:39.027Z,100181.00
2019-03-26T02:10:09.771Z,100192.00
2019-03-26T02:12:41.340Z,100195.00
2019-03-26T02:15:29.660Z,100187.00
2019-03-26T02:17:59.784Z,100187.00
2019-03-26T02:20:30.674Z,100195.00
2019-03-26T02:23:00.731Z,100185.00
2019-03-26T02:25:31.674Z,100188.00
2019-03-26T02:28:02.648Z,100193.00
2019-03-26T02:30:32.932Z,100195.00
2019-03-26T02:33:03.692Z,100186.00
2019-03-26T02:35:33.714Z,100187.00
2019-03-26T02:38:03.751Z,100190.00
2019-03-26T02:40:33.711Z,100193.00
2019-03-26T02:43:06.692Z,100199.00
2019-03-26T02:45:36.749Z,100193.00
2019-03-26T02:48:07.632Z,100196.00
2019-03-26T02:50:37.659Z,100192.00
2019-03-26T02:53:09.013Z,100199.00
2019-03-26T02:55:40.634Z,100203.00
2019-03-26T02:58:09.794Z,100205.00
2019-03-26T03:00:40.673Z,100212.00
2019-03-26T03:03:09.790Z,100211.00
2019-03-26T03:05:40.672Z,100205.00
2019-03-26T03:08:10.744Z,100219.00
2019-03-26T03:10:41.560Z,100206.00
2019-03-26T03:13:10.762Z,100219.00
2019-03-26T03:15:41.670Z,100222.00
2019-03-26T03:18:12.664Z,100219.00
2019-03-26T03:20:41.970Z,100214.00
2019-03-26T03:23:12.740Z,100227.00
2019-03-26T03:25:46.657Z,100222.00
2019-03-26T03:28:15.782Z,100234.00
2019-03-26T03:30:46.657Z,100229.00
2019-03-26T03:33:16.747Z,100229.00
2019-03-26T03:35:52.555Z,100239.00
2019-03-26T03:38:18.705Z,100231.00
2019-03-26T03:40:49.001Z,100234.00
2019-03-26T03:43:21.614Z,100237.00
2019-03-26T03:45:52.835Z,100230.00
2019-03-26T03:48:24.603Z,100244.00
2019-03-26T03:50:55.756Z,100244.00
2019-03-26T03:53:26.740Z,100244.00
2019-03-26T03:55:57.859Z,100252.00
2019-03-26T03:58:32.789Z,100243.00
2019-03-26T04:01:03.749Z,100255.00
2019-03-26T04:03:34.579Z,100251.00
2019-03-26T04:06:09.466Z,100247.00
2019-03-26T04:08:38.668Z,100247.00
2019-03-26T04:11:07.775Z,100242.00
2019-03-26T04:13:38.592Z,100240.00
2019-03-26T04:16:07.709Z,100250.00
2019-03-26T04:18:36.893Z,100243.00
2019-03-26T04:21:14.644Z,100241.00
2019-03-26T04:23:44.685Z,100244.00
2019-03-26T04:26:14.711Z,100259.00
2019-03-26T04:28:44.642Z,100258.00
2019-03-26T04:31:15.611Z,100258.00
2019-03-26T04:33:44.840Z,100255.00
2019-03-26T04:36:25.487Z,100250.00
2019-03-26T04:38:46.715Z,100254.00
2019-03-26T04:41:16.635Z,100254.00
2019-03-26T04:43:47.711Z,100253.00
2019-03-26T04:46:16.847Z,100241.00
2019-03-26T04:48:47.572Z,100234.00
2019-03-26T04:51:18.615Z,100243.00
2019-03-26T04:53:48.679Z,100235.00
2019-03-26T04:56:19.596Z,100237.00
2019-03-26T04:58:48.762Z,100233.00
2019-03-26T05:01:19.623Z,100238.00
2019-03-26T05:03:48.994Z,100247.00
2019-03-26T05:06:19.629Z,100255.00
2019-03-26T05:08:50.225Z,100262.00
2019-03-26T05:11:19.739Z,100256.00
2019-03-26T05:13:50.621Z,100270.00
2019-03-26T05:16:19.748Z,100266.00
2019-03-26T05:18:50.583Z,100271.00
2019-03-26T05:21:19.697Z,100274.00
2019-03-26T05:23:51.783Z,100274.00
2019-03-26T05:26:19.713Z,100274.00
2019-03-26T05:28:50.271Z,100287.00
2019-03-26T05:31:20.570Z,100282.00
2019-03-26T05:33:50.645Z,100283.00
2019-03-26T05:36:21.255Z,100280.00
2019-03-26T05:38:50.732Z,100294.00
2019-03-26T05:41:21.639Z,100289.00
2019-03-26T05:45:11.684Z,100288.00
2019-03-26T05:47:43.559Z,100286.00
2019-03-26T05:50:12.897Z,100286.00
2019-03-26T05:52:43.610Z,100288.00
2019-03-26T05:55:12.855Z,100287.00
2019-03-26T05:57:44.319Z,100289.00
2019-03-26T06:00:20.763Z,100294.00
2019-03-26T06:02:51.572Z,100295.00
2019-03-26T06:05:21.638Z,100289.00
2019-03-26T06:07:52.562Z,100284.00
2019-03-26T06:10:21.705Z,100293.00
2019-03-26T06:12:50.774Z,100292.00
2019-03-26T06:16:38.200Z,100284.00
2019-03-26T06:19:05.800Z,100274.00
2019-03-26T06:21:37.022Z,100288.00
2019-03-26T06:24:07.707Z,100288.00
2019-03-26T06:26:36.782Z,100290.00
2019-03-26T06:29:12.586Z,100283.00
2019-03-26T06:31:43.595Z,100275.00
2019-03-26T06:34:13.803Z,100280.00
2019-03-26T06:36:45.421Z,100278.00
2019-03-26T06:39:16.671Z,100282.00
2019-03-26T06:41:45.886Z,100279.00
2019-03-26T06:44:19.576Z,100280.00
2019-03-26T06:46:49.774Z,100269.00
2019-03-26T06:49:20.630Z,100279.00
2019-03-26T06:51:51.632Z,100281.00
2019-03-26T06:54:20.750Z,100287.00
2019-03-26T06:56:55.300Z,100283.00
2019-03-26T06:59:25.721Z,100276.00
2019-03-26T07:37:44.578Z,100269.00
2019-03-26T07:40:52.623Z,100261.00
2019-03-26T07:43:22.648Z,100263.00
2019-03-26T07:45:54.684Z,100261.00
2019-03-26T07:48:25.783Z,100267.00
2019-03-26T07:50:57.349Z,100268.00
2019-03-26T07:53:27.662Z,100265.00
2019-03-26T07:57:49.695Z,100272.00
2019-03-26T08:37:48.938Z,100242.00
2019-03-26T08:42:48.659Z,100234.00
2019-03-26T08:45:18.770Z,100231.00
2019-03-26T08:52:51.746Z,100221.00
2019-03-26T09:54:10.286Z,100153.00
2019-03-26T09:56:42.752Z,100146.00
2019-03-26T09:59:13.650Z,100148.00
2019-03-26T11:55:48.713Z,99899.00
2019-03-26T12:00:25.263Z,99915.00
2019-03-26T12:02:55.721Z,99900.00
2019-03-26T12:05:26.326Z,99895.00
2019-03-26T12:07:55.758Z,99878.00
2019-03-26T12:10:26.692Z,99886.00
2019-03-26T12:12:56.747Z,99866.00
2019-03-26T12:15:27.679Z,99874.00
2019-03-26T12:20:32.831Z,99863.00
2019-03-26T13:27:29.708Z,99896.00
2019-03-26T13:30:00.720Z,99858.00
2019-03-26T13:32:30.812Z,99876.00
2019-03-26T13:35:01.719Z,99877.00
2019-03-26T13:37:30.820Z,99875.00
2019-03-26T13:40:01.584Z,99888.00
2019-03-26T13:42:32.572Z,99868.00
2019-03-26T13:45:01.775Z,99849.00
2019-03-26T13:47:32.748Z,99873.00
2019-03-26T13:50:04.587Z,99857.00
2019-03-26T13:52:33.960Z,99858.00
2019-03-26T13:55:05.597Z,99873.00
2019-03-26T13:57:34.752Z,99859.00
2019-03-26T14:00:06.537Z,99883.00
2019-03-26T14:02:36.599Z,99882.00
2019-03-26T14:05:13.731Z,99875.00
2019-03-26T14:07:44.446Z,99886.00
2019-03-26T14:10:14.646Z,99874.00
2019-03-26T14:12:44.646Z,99865.00
2019-03-26T14:15:14.704Z,99875.00
2019-03-26T14:17:45.194Z,99878.00
2019-03-26T14:20:15.644Z,99884.00
2019-03-26T14:22:45.663Z,99875.00
2019-03-26T14:25:14.807Z,99878.00
2019-03-26T14:27:46.196Z,99860.00
2019-03-26T14:30:35.537Z,99857.00
2019-03-26T14:33:05.733Z,99854.00
2019-03-26T14:35:36.558Z,99847.00
2019-03-26T14:38:05.724Z,99841.00
2019-03-26T14:40:35.940Z,99848.00
2019-03-26T14:43:06.548Z,99858.00
2019-03-26T14:45:36.934Z,99837.00
2019-03-26T14:48:07.563Z,99828.00
2019-03-26T14:50:37.703Z,99837.00
2019-03-26T14:53:08.003Z,99857.00
2019-03-26T14:55:37.658Z,99823.00
2019-03-26T14:58:08.492Z,99848.00
2019-03-26T15:00:37.672Z,99807.00
2019-03-26T15:03:08.054Z,99937.00
2019-03-26T15:05:37.647Z,99958.00
2019-03-26T15:08:08.283Z,99949.00
2019-03-26T15:10:39.265Z,99965.00
2019-03-26T15:13:08.658Z,99952.00
2019-03-26T15:15:38.989Z,99977.00
2019-03-26T15:18:08.725Z,99976.00
2019-03-26T15:20:39.592Z,99975.00
2019-03-26T15:23:09.374Z,99968.00
2019-03-26T15:25:39.647Z,99966.00
2019-03-26T15:28:11.683Z,99960.00
2019-03-26T15:30:42.764Z,99945.00
2019-03-26T15:33:13.644Z,99934.00
2019-03-26T15:35:43.723Z,99959.00
2019-03-26T15:38:14.197Z,99978.00
2019-03-26T15:40:43.672Z,99969.00
2019-03-26T15:45:14.279Z,99970.00
2019-03-26T15:47:44.585Z,99976.00
2019-03-26T15:50:36.604Z,99950.00
2019-03-26T15:53:06.754Z,99939.00
2019-03-26T15:55:37.970Z,99952.00
2019-03-26T15:58:09.180Z,99961.00
2019-03-26T16:00:40.486Z,99964.00
2019-03-26T16:03:10.802Z,99968.00
2019-03-26T16:05:41.595Z,99972.00
2019-03-26T16:08:11.540Z,99971.00
2019-03-26T16:10:42.556Z,99977.00
2019-03-26T16:13:12.791Z,99979.00
2019-03-26T16:15:45.150Z,99979.00
2019-03-26T16:18:16.188Z,99979.00
2019-03-26T16:20:46.539Z,99972.00
2019-03-26T16:23:16.663Z,99981.00
2019-03-26T16:25:46.815Z,99984.00
2019-03-26T16:28:16.651Z,99972.00
2019-03-26T16:30:47.793Z,99982.00
2019-03-26T16:33:18.779Z,99999.00
2019-03-26T16:35:49.484Z,99999.00
2019-03-26T16:38:18.948Z,100008.00
2019-03-26T16:40:49.607Z,100001.00
2019-03-26T16:43:19.765Z,100008.00
2019-03-26T16:45:50.583Z,100017.00
2019-03-26T16:48:20.651Z,100017.00
2019-03-26T16:50:49.882Z,100023.00
2019-03-26T16:53:20.595Z,100017.00
2019-03-26T16:55:50.441Z,100035.00
2019-03-26T16:58:20.594Z,100031.00
2019-03-26T17:00:51.546Z,100030.00
2019-03-26T17:03:30.754Z,100037.00
2019-03-26T17:05:51.677Z,100043.00
2019-03-26T17:08:22.856Z,100045.00
2019-03-26T17:10:53.491Z,100051.00
2019-03-26T17:13:23.576Z,100051.00
2019-03-26T17:15:54.292Z,100050.00
2019-03-26T17:18:23.942Z,100051.00
2019-03-26T17:20:54.539Z,100057.00
2019-03-26T17:23:24.562Z,100063.00
2019-03-26T17:25:54.720Z,100062.00
2019-03-26T17:28:25.495Z,100074.00
2019-03-26T17:30:57.628Z,100076.00
2019-03-26T17:33:29.091Z,100084.00
2019-03-26T17:35:59.524Z,100077.00
2019-03-26T17:38:29.892Z,100088.00
2019-03-26T17:41:01.359Z,100092.00
2019-03-26T17:43:30.836Z,100095.00
2019-03-26T17:46:01.556Z,100104.00
2019-03-26T17:48:31.560Z,100097.00
2019-03-26T17:51:02.541Z,100111.00
2019-03-26T17:53:31.536Z,100130.00
2019-03-26T17:56:00.352Z,100131.00
2019-03-26T17:58:31.625Z,100137.00
2019-03-26T18:01:02.176Z,100146.00
2019-03-26T18:03:33.492Z,100147.00
2019-03-26T18:06:02.640Z,100150.00
2019-03-26T18:08:31.680Z,100151.00
2019-03-26T18:12:30.132Z,100155.00
2019-03-26T18:14:49.706Z,100158.00
2019-03-26T18:17:20.533Z,100167.00
2019-03-26T18:22:02.345Z,100170.00
2019-03-26T18:24:31.745Z,100170.00
2019-03-26T18:27:02.615Z,100173.00
2019-03-26T18:29:31.702Z,100177.00
2019-03-26T18:32:02.748Z,100185.00
2019-03-26T18:34:32.676Z,100180.00
2019-03-26T18:37:03.677Z,100188.00
2019-03-26T18:39:34.563Z,100195.00
2019-03-26T18:42:05.630Z,100196.00
2019-03-26T18:44:35.804Z,100201.00
2019-03-26T18:47:06.553Z,100202.00
2019-03-26T18:49:35.671Z,100206.00
2019-03-26T18:54:13.637Z,100208.00
2019-03-26T18:56:44.918Z,100226.00
2019-03-26T18:59:16.178Z,100233.00
2019-03-26T19:01:47.472Z,100228.00
2019-03-26T19:04:50.273Z,100238.00
2019-03-26T19:07:21.195Z,100239.00
2019-03-26T19:09:52.221Z,100238.00
2019-03-26T19:12:22.979Z,100246.00
2019-03-26T19:14:53.575Z,100246.00
2019-03-26T19:18:06.577Z,100257.00
2019-03-26T19:20:36.689Z,100266.00
2019-03-26T19:23:07.683Z,100255.00
2019-03-26T19:25:38.579Z,100265.00
2019-03-26T19:28:08.759Z,100274.00
2019-03-26T19:30:39.547Z,100278.00
2019-03-26T19:33:10.809Z,100290.00
2019-03-26T19:35:41.564Z,100280.00
2019-03-26T19:38:11.516Z,100285.00
2019-03-26T19:40:40.728Z,100294.00
2019-03-26T19:43:11.866Z,100300.00
2019-03-26T19:45:42.602Z,100300.00
2019-03-26T19:48:12.626Z,100303.00
2019-03-26T19:50:43.230Z,100318.00
2019-03-26T19:53:13.540Z,100312.00
2019-03-26T19:55:43.597Z,100322.00
2019-03-26T19:58:13.669Z,100317.00
2019-03-26T20:00:43.664Z,100321.00
2019-03-26T20:05:56.548Z,100323.00
2019-03-26T20:08:26.586Z,100342.00
2019-03-26T20:11:49.643Z,100345.00
2019-03-26T20:14:20.563Z,100348.00
2019-03-26T20:16:51.297Z,100356.00
2019-03-26T20:19:20.652Z,100367.00
2019-03-26T20:21:51.600Z,100359.00
2019-03-26T20:24:20.740Z,100367.00
2019-03-26T20:26:51.584Z,100364.00
2019-03-26T20:29:21.676Z,100360.00
2019-03-26T20:31:52.823Z,100363.00
2019-03-26T20:34:26.146Z,100367.00
2019-03-26T20:36:56.700Z,100380.00
2019-03-26T20:39:27.594Z,100374.00
2019-03-26T20:41:57.666Z,100377.00
2019-03-26T20:44:28.611Z,100395.00
2019-03-26T20:46:58.564Z,100390.00
2019-03-26T20:49:28.681Z,100389.00
2019-03-26T20:51:59.600Z,100396.00
2019-03-26T20:54:28.777Z,100398.00
2019-03-26T20:57:00.243Z,100406.00
2019-03-26T20:59:32.539Z,100404.00
2019-03-26T21:02:01.952Z,100402.00
2019-03-26T21:04:33.617Z,100413.00
2019-03-26T21:07:04.348Z,100414.00
2019-03-26T21:09:35.356Z,100419.00
2019-03-26T21:12:06.626Z,100420.00
2019-03-26T21:14:35.800Z,100429.00
2019-03-26T21:17:06.656Z,100434.00
2019-03-26T21:19:36.067Z,100438.00
2019-03-26T21:22:06.669Z,100438.00
2019-03-26T21:24:36.637Z,100443.00
2019-03-26T21:27:07.623Z,100457.00
2019-03-26T21:29:37.673Z,100459.00
2019-03-26T21:32:08.618Z,100467.00
2019-03-26T21:34:39.813Z,100462.00
2019-03-26T21:37:10.647Z,100462.00
2019-03-26T21:39:39.705Z,100476.00
2019-03-26T21:42:10.635Z,100478.00
2019-03-26T21:44:39.740Z,100470.00
2019-03-26T21:47:10.602Z,100475.00
2019-03-26T21:49:40.069Z,100479.00
2019-03-26T21:52:10.664Z,100487.00
2019-03-26T21:54:40.834Z,100505.00
2019-03-26T21:57:11.766Z,100515.00
2019-03-26T21:59:42.606Z,100509.00
2019-03-26T22:02:11.753Z,100511.00
2019-03-26T22:04:42.653Z,100516.00
2019-03-26T22:07:13.640Z,100516.00
2019-03-26T22:09:44.610Z,100522.00
2019-03-26T22:12:14.648Z,100528.00
2019-03-26T22:14:45.598Z,100528.00
2019-03-26T22:17:14.811Z,100528.00
2019-03-26T22:19:46.191Z,100537.00
2019-03-26T22:22:17.503Z,100532.00
2019-03-26T22:24:47.383Z,100536.00
2019-03-26T22:27:18.613Z,100536.00
2019-03-26T22:29:47.727Z,100537.00
2019-03-26T22:32:18.664Z,100539.00
2019-03-26T22:34:51.687Z,100530.00
2019-03-26T22:37:21.690Z,100539.00
2019-03-26T22:39:52.586Z,100544.00
2019-03-26T22:42:23.521Z,100557.00
2019-03-26T22:44:53.584Z,100555.00
2019-03-26T23:02:22.665Z,100577.00
2019-03-26T23:04:53.597Z,100579.00
2019-03-26T23:07:22.730Z,100564.00
2019-03-26T23:12:46.757Z,100590.00
2019-03-26T23:15:24.224Z,100591.00
2019-03-26T23:17:55.563Z,100592.00
2019-03-26T23:25:10.515Z,100597.00
2019-03-26T23:27:40.759Z,100596.00
2019-03-26T23:30:12.716Z,100597.00
2019-03-26T23:32:44.610Z,100606.00
2019-03-26T23:35:16.681Z,100596.00
2019-03-26T23:37:48.614Z,100606.00
2019-03-26T23:40:18.687Z,100612.00
2019-03-26T23:42:49.768Z,100611.00
2019-03-26T23:45:20.710Z,100611.00
2019-03-26T23:47:51.744Z,100616.00
2019-03-26T23:50:22.636Z,100616.00
2019-03-26T23:52:52.640Z,100620.00
2019-03-26T23:55:23.606Z,100624.00
2019-03-26T23:57:52.718Z,100628.00
